sensor_id;sensor_type;location;lat;lon;timestamp;P1;durP1;ratioP1;P2;durP2;ratioP2
15358;SDS011;7779;49.596;11.070;2022-11-25T00:00:47;4.03;;;3.20;;
15358;SDS011;7779;49.596;11.070;2022-11-25T00:03:13;5.40;;;3.47;;
15358;SDS011;7779;49.596;11.070;2022-11-25T00:05:39;3.43;;;2.80;;
15358;SDS011;7779;49.596;11.070;2022-11-25T00:08:05;3.87;;;3.47;;
15358;SDS011;7779;49.596;11.070;2022-11-25T00:10:31;3.57;;;3.20;;
15358;SDS011;7779;49.596;11.070;2022-11-25T00:12:57;3.37;;;3.00;;
15358;SDS011;7779;49.596;11.070;2022-11-25T00:15:22;4.57;;;2.90;;
15358;SDS011;7779;49.596;11.070;2022-11-25T00:17:48;4.27;;;2.83;;
15358;SDS011;7779;49.596;11.070;2022-11-25T00:20:14;3.50;;;2.57;;
15358;SDS011;7779;49.596;11.070;2022-11-25T00:22:40;3.97;;;3.03;;
15358;SDS011;7779;49.596;11.070;2022-11-25T00:25:05;3.33;;;2.60;;
15358;SDS011;7779;49.596;11.070;2022-11-25T00:27:31;4.47;;;2.90;;
15358;SDS011;7779;49.596;11.070;2022-11-25T00:29:57;3.80;;;2.57;;
15358;SDS011;7779;49.596;11.070;2022-11-25T00:32:23;3.07;;;2.77;;
15358;SDS011;7779;49.596;11.070;2022-11-25T00:34:49;3.70;;;2.50;;
15358;SDS011;7779;49.596;11.070;2022-11-25T00:37:15;5.63;;;2.43;;
15358;SDS011;7779;49.596;11.070;2022-11-25T00:39:40;5.30;;;2.10;;
15358;SDS011;7779;49.596;11.070;2022-11-25T00:42:06;3.63;;;2.33;;
15358;SDS011;7779;49.596;11.070;2022-11-25T00:44:51;6.83;;;2.87;;
15358;SDS011;7779;49.596;11.070;2022-11-25T00:47:18;2.87;;;2.30;;
15358;SDS011;7779;49.596;11.070;2022-11-25T00:49:46;6.80;;;2.63;;
15358;SDS011;7779;49.596;11.070;2022-11-25T00:52:19;6.43;;;2.87;;
15358;SDS011;7779;49.596;11.070;2022-11-25T00:54:48;3.87;;;2.57;;
15358;SDS011;7779;49.596;11.070;2022-11-25T00:57:19;5.50;;;2.93;;
15358;SDS011;7779;49.596;11.070;2022-11-25T00:59:47;5.53;;;2.60;;
15358;SDS011;7779;49.596;11.070;2022-11-25T01:02:13;3.87;;;2.97;;
15358;SDS011;7779;49.596;11.070;2022-11-25T01:04:42;4.87;;;2.70;;
15358;SDS011;7779;49.596;11.070;2022-11-25T01:07:09;6.10;;;2.47;;
15358;SDS011;7779;49.596;11.070;2022-11-25T01:09:35;5.43;;;3.43;;
15358;SDS011;7779;49.596;11.070;2022-11-25T01:12:02;3.57;;;2.53;;
15358;SDS011;7779;49.596;11.070;2022-11-25T01:14:29;5.03;;;2.53;;
15358;SDS011;7779;49.596;11.070;2022-11-25T01:16:55;4.43;;;2.57;;
15358;SDS011;7779;49.596;11.070;2022-11-25T01:19:20;9.27;;;3.20;;
15358;SDS011;7779;49.596;11.070;2022-11-25T01:21:48;4.70;;;2.50;;
15358;SDS011;7779;49.596;11.070;2022-11-25T01:24:14;9.17;;;3.63;;
15358;SDS011;7779;49.596;11.070;2022-11-25T01:26:42;3.10;;;2.53;;
15358;SDS011;7779;49.596;11.070;2022-11-25T01:29:12;3.67;;;2.53;;
15358;SDS011;7779;49.596;11.070;2022-11-25T01:31:41;4.20;;;2.80;;
15358;SDS011;7779;49.596;11.070;2022-11-25T01:36:42;4.47;;;2.63;;
15358;SDS011;7779;49.596;11.070;2022-11-25T01:39:12;6.20;;;2.80;;
15358;SDS011;7779;49.596;11.070;2022-11-25T01:41:43;6.67;;;2.80;;
15358;SDS011;7779;49.596;11.070;2022-11-25T01:49:14;3.43;;;2.50;;
15358;SDS011;7779;49.596;11.070;2022-11-25T01:52:27;5.00;;;2.60;;
15358;SDS011;7779;49.596;11.070;2022-11-25T01:54:37;4.63;;;2.80;;
15358;SDS011;7779;49.596;11.070;2022-11-25T01:57:21;3.20;;;2.57;;
15358;SDS011;7779;49.596;11.070;2022-11-25T01:59:55;4.27;;;3.10;;
15358;SDS011;7779;49.596;11.070;2022-11-25T02:02:24;3.47;;;2.60;;
15358;SDS011;7779;49.596;11.070;2022-11-25T02:04:51;3.57;;;3.03;;
15358;SDS011;7779;49.596;11.070;2022-11-25T02:07:18;3.57;;;2.80;;
15358;SDS011;7779;49.596;11.070;2022-11-25T02:09:55;3.13;;;2.80;;
15358;SDS011;7779;49.596;11.070;2022-11-25T02:12:23;4.27;;;3.20;;
15358;SDS011;7779;49.596;11.070;2022-11-25T02:14:51;3.53;;;3.00;;
15358;SDS011;7779;49.596;11.070;2022-11-25T02:17:21;3.50;;;2.90;;
15358;SDS011;7779;49.596;11.070;2022-11-25T02:22:38;3.80;;;3.30;;
15358;SDS011;7779;49.596;11.070;2022-11-25T02:25:20;4.00;;;3.10;;
15358;SDS011;7779;49.596;11.070;2022-11-25T02:27:56;3.93;;;2.73;;
15358;SDS011;7779;49.596;11.070;2022-11-25T02:30:42;4.23;;;3.20;;
15358;SDS011;7779;49.596;11.070;2022-11-25T02:33:09;5.63;;;3.37;;
15358;SDS011;7779;49.596;11.070;2022-11-25T02:35:37;4.63;;;3.10;;
15358;SDS011;7779;49.596;11.070;2022-11-25T02:40:59;4.90;;;2.90;;
15358;SDS011;7779;49.596;11.070;2022-11-25T02:44:04;3.60;;;2.87;;
15358;SDS011;7779;49.596;11.070;2022-11-25T02:46:31;3.20;;;2.60;;
15358;SDS011;7779;49.596;11.070;2022-11-25T02:49:00;2.90;;;2.60;;
15358;SDS011;7779;49.596;11.070;2022-11-25T02:51:28;3.90;;;2.77;;
15358;SDS011;7779;49.596;11.070;2022-11-25T02:53:57;4.70;;;2.77;;
15358;SDS011;7779;49.596;11.070;2022-11-25T02:56:30;3.10;;;2.80;;
15358;SDS011;7779;49.596;11.070;2022-11-25T02:58:58;3.07;;;2.77;;
15358;SDS011;7779;49.596;11.070;2022-11-25T03:01:26;3.63;;;2.70;;
15358;SDS011;7779;49.596;11.070;2022-11-25T03:03:53;3.00;;;2.60;;
15358;SDS011;7779;49.596;11.070;2022-11-25T03:06:19;3.03;;;2.60;;
15358;SDS011;7779;49.596;11.070;2022-11-25T03:08:46;3.83;;;2.63;;
15358;SDS011;7779;49.596;11.070;2022-11-25T03:11:12;3.30;;;2.30;;
15358;SDS011;7779;49.596;11.070;2022-11-25T03:13:38;3.43;;;2.77;;
15358;SDS011;7779;49.596;11.070;2022-11-25T03:16:04;3.00;;;2.70;;
15358;SDS011;7779;49.596;11.070;2022-11-25T03:18:31;3.20;;;2.90;;
15358;SDS011;7779;49.596;11.070;2022-11-25T03:20:57;3.63;;;2.43;;
15358;SDS011;7779;49.596;11.070;2022-11-25T03:23:23;2.90;;;2.50;;
15358;SDS011;7779;49.596;11.070;2022-11-25T03:25:52;3.17;;;2.87;;
15358;SDS011;7779;49.596;11.070;2022-11-25T03:28:18;4.63;;;2.93;;
15358;SDS011;7779;49.596;11.070;2022-11-25T03:30:44;2.90;;;2.60;;
15358;SDS011;7779;49.596;11.070;2022-11-25T03:33:10;3.20;;;2.70;;
15358;SDS011;7779;49.596;11.070;2022-11-25T03:35:36;3.53;;;2.50;;
15358;SDS011;7779;49.596;11.070;2022-11-25T03:38:03;4.47;;;2.70;;
15358;SDS011;7779;49.596;11.070;2022-11-25T03:40:32;3.87;;;2.50;;
15358;SDS011;7779;49.596;11.070;2022-11-25T03:42:58;3.60;;;2.90;;
15358;SDS011;7779;49.596;11.070;2022-11-25T03:45:24;4.00;;;2.80;;
15358;SDS011;7779;49.596;11.070;2022-11-25T03:47:49;4.20;;;2.70;;
15358;SDS011;7779;49.596;11.070;2022-11-25T03:50:16;3.30;;;2.50;;
15358;SDS011;7779;49.596;11.070;2022-11-25T03:52:44;3.90;;;2.97;;
15358;SDS011;7779;49.596;11.070;2022-11-25T03:55:10;3.37;;;2.67;;
15358;SDS011;7779;49.596;11.070;2022-11-25T03:57:39;3.83;;;2.70;;
15358;SDS011;7779;49.596;11.070;2022-11-25T04:00:06;3.60;;;2.40;;
15358;SDS011;7779;49.596;11.070;2022-11-25T04:02:48;5.90;;;3.03;;
15358;SDS011;7779;49.596;11.070;2022-11-25T04:05:15;2.67;;;2.23;;
15358;SDS011;7779;49.596;11.070;2022-11-25T04:07:41;3.80;;;2.67;;
15358;SDS011;7779;49.596;11.070;2022-11-25T04:10:07;2.43;;;2.20;;
15358;SDS011;7779;49.596;11.070;2022-11-25T04:12:34;2.83;;;2.27;;
15358;SDS011;7779;49.596;11.070;2022-11-25T04:15:16;4.77;;;2.43;;
15358;SDS011;7779;49.596;11.070;2022-11-25T04:17:46;4.30;;;2.77;;
15358;SDS011;7779;49.596;11.070;2022-11-25T04:20:12;3.37;;;2.33;;
15358;SDS011;7779;49.596;11.070;2022-11-25T04:22:41;3.40;;;2.00;;
15358;SDS011;7779;49.596;11.070;2022-11-25T04:25:08;6.37;;;2.57;;
15358;SDS011;7779;49.596;11.070;2022-11-25T04:27:35;3.80;;;2.67;;
15358;SDS011;7779;49.596;11.070;2022-11-25T04:30:01;4.43;;;2.47;;
15358;SDS011;7779;49.596;11.070;2022-11-25T04:32:28;3.70;;;2.60;;
15358;SDS011;7779;49.596;11.070;2022-11-25T04:34:54;4.17;;;2.77;;
15358;SDS011;7779;49.596;11.070;2022-11-25T04:37:20;4.73;;;2.97;;
15358;SDS011;7779;49.596;11.070;2022-11-25T04:39:46;3.93;;;2.33;;
15358;SDS011;7779;49.596;11.070;2022-11-25T04:42:15;3.97;;;2.83;;
15358;SDS011;7779;49.596;11.070;2022-11-25T04:45:03;3.13;;;2.17;;
15358;SDS011;7779;49.596;11.070;2022-11-25T04:47:38;3.57;;;2.47;;
15358;SDS011;7779;49.596;11.070;2022-11-25T04:50:04;2.40;;;2.00;;
15358;SDS011;7779;49.596;11.070;2022-11-25T04:52:45;3.30;;;2.50;;
15358;SDS011;7779;49.596;11.070;2022-11-25T04:55:11;3.80;;;2.57;;
15358;SDS011;7779;49.596;11.070;2022-11-25T04:57:37;3.13;;;2.57;;
15358;SDS011;7779;49.596;11.070;2022-11-25T05:00:04;2.53;;;2.30;;
15358;SDS011;7779;49.596;11.070;2022-11-25T05:02:31;3.30;;;2.53;;
15358;SDS011;7779;49.596;11.070;2022-11-25T05:05:03;3.77;;;2.60;;
15358;SDS011;7779;49.596;11.070;2022-11-25T05:07:30;3.10;;;2.50;;
15358;SDS011;7779;49.596;11.070;2022-11-25T05:09:56;3.57;;;2.40;;
15358;SDS011;7779;49.596;11.070;2022-11-25T05:12:31;2.77;;;2.40;;
15358;SDS011;7779;49.596;11.070;2022-11-25T05:14:58;2.83;;;2.53;;
15358;SDS011;7779;49.596;11.070;2022-11-25T05:17:26;3.43;;;2.53;;
15358;SDS011;7779;49.596;11.070;2022-11-25T05:19:54;3.30;;;2.63;;
15358;SDS011;7779;49.596;11.070;2022-11-25T05:22:21;3.07;;;2.77;;
15358;SDS011;7779;49.596;11.070;2022-11-25T05:24:54;2.90;;;2.37;;
15358;SDS011;7779;49.596;11.070;2022-11-25T05:27:21;4.27;;;2.77;;
15358;SDS011;7779;49.596;11.070;2022-11-25T05:29:47;3.43;;;3.13;;
15358;SDS011;7779;49.596;11.070;2022-11-25T05:32:14;4.67;;;2.93;;
15358;SDS011;7779;49.596;11.070;2022-11-25T05:34:41;4.00;;;2.50;;
15358;SDS011;7779;49.596;11.070;2022-11-25T05:37:08;2.90;;;2.40;;
15358;SDS011;7779;49.596;11.070;2022-11-25T05:39:40;2.80;;;2.47;;
15358;SDS011;7779;49.596;11.070;2022-11-25T05:42:27;4.67;;;3.87;;
15358;SDS011;7779;49.596;11.070;2022-11-25T05:44:55;3.50;;;3.10;;
15358;SDS011;7779;49.596;11.070;2022-11-25T05:47:21;4.03;;;2.97;;
15358;SDS011;7779;49.596;11.070;2022-11-25T05:49:47;3.07;;;2.33;;
15358;SDS011;7779;49.596;11.070;2022-11-25T05:52:13;4.13;;;3.03;;
15358;SDS011;7779;49.596;11.070;2022-11-25T05:54:47;3.17;;;2.30;;
15358;SDS011;7779;49.596;11.070;2022-11-25T05:57:13;3.60;;;2.60;;
15358;SDS011;7779;49.596;11.070;2022-11-25T05:59:45;2.50;;;2.27;;
15358;SDS011;7779;49.596;11.070;2022-11-25T06:02:18;3.50;;;2.30;;
15358;SDS011;7779;49.596;11.070;2022-11-25T06:04:44;2.60;;;1.93;;
15358;SDS011;7779;49.596;11.070;2022-11-25T06:07:10;3.10;;;2.27;;
15358;SDS011;7779;49.596;11.070;2022-11-25T06:09:37;2.73;;;2.30;;
15358;SDS011;7779;49.596;11.070;2022-11-25T06:12:04;3.53;;;2.23;;
15358;SDS011;7779;49.596;11.070;2022-11-25T06:14:34;3.30;;;2.53;;
15358;SDS011;7779;49.596;11.070;2022-11-25T06:17:00;3.60;;;2.30;;
15358;SDS011;7779;49.596;11.070;2022-11-25T06:19:30;3.90;;;2.70;;
15358;SDS011;7779;49.596;11.070;2022-11-25T06:21:56;3.97;;;2.87;;
15358;SDS011;7779;49.596;11.070;2022-11-25T06:24:24;4.63;;;3.00;;
15358;SDS011;7779;49.596;11.070;2022-11-25T06:26:55;3.63;;;3.20;;
15358;SDS011;7779;49.596;11.070;2022-11-25T06:29:21;5.03;;;3.33;;
15358;SDS011;7779;49.596;11.070;2022-11-25T06:31:48;5.20;;;3.30;;
15358;SDS011;7779;49.596;11.070;2022-11-25T06:34:28;3.97;;;2.73;;
15358;SDS011;7779;49.596;11.070;2022-11-25T06:36:54;4.10;;;2.70;;
15358;SDS011;7779;49.596;11.070;2022-11-25T06:39:20;4.80;;;2.83;;
15358;SDS011;7779;49.596;11.070;2022-11-25T06:41:46;3.17;;;2.60;;
15358;SDS011;7779;49.596;11.070;2022-11-25T06:44:12;3.47;;;2.57;;
15358;SDS011;7779;49.596;11.070;2022-11-25T06:46:38;4.27;;;2.57;;
15358;SDS011;7779;49.596;11.070;2022-11-25T06:49:04;2.83;;;2.20;;
15358;SDS011;7779;49.596;11.070;2022-11-25T06:51:31;3.50;;;2.43;;
15358;SDS011;7779;49.596;11.070;2022-11-25T06:53:57;3.80;;;2.73;;
15358;SDS011;7779;49.596;11.070;2022-11-25T06:56:24;2.77;;;2.53;;
15358;SDS011;7779;49.596;11.070;2022-11-25T06:58:52;5.97;;;2.90;;
15358;SDS011;7779;49.596;11.070;2022-11-25T07:01:20;3.57;;;2.77;;
15358;SDS011;7779;49.596;11.070;2022-11-25T07:03:53;3.63;;;2.63;;
15358;SDS011;7779;49.596;11.070;2022-11-25T07:06:27;12.30;;;3.77;;
15358;SDS011;7779;49.596;11.070;2022-11-25T07:08:54;29.60;;;6.03;;
15358;SDS011;7779;49.596;11.070;2022-11-25T07:11:22;29.80;;;6.13;;
15358;SDS011;7779;49.596;11.070;2022-11-25T07:13:52;39.73;;;6.93;;
15358;SDS011;7779;49.596;11.070;2022-11-25T07:16:21;22.80;;;6.07;;
15358;SDS011;7779;49.596;11.070;2022-11-25T07:18:47;31.80;;;6.50;;
15358;SDS011;7779;49.596;11.070;2022-11-25T07:21:15;20.47;;;5.40;;
15358;SDS011;7779;49.596;11.070;2022-11-25T07:23:44;18.20;;;5.37;;
15358;SDS011;7779;49.596;11.070;2022-11-25T07:28:42;17.93;;;5.70;;
15358;SDS011;7779;49.596;11.070;2022-11-25T07:31:18;16.57;;;6.23;;
15358;SDS011;7779;49.596;11.070;2022-11-25T07:33:51;12.97;;;5.67;;
15358;SDS011;7779;49.596;11.070;2022-11-25T07:36:28;15.87;;;5.63;;
15358;SDS011;7779;49.596;11.070;2022-11-25T07:38:59;8.10;;;4.80;;
15358;SDS011;7779;49.596;11.070;2022-11-25T07:41:28;7.20;;;4.00;;
15358;SDS011;7779;49.596;11.070;2022-11-25T07:43:56;5.07;;;4.17;;
15358;SDS011;7779;49.596;11.070;2022-11-25T07:46:26;7.50;;;4.33;;
15358;SDS011;7779;49.596;11.070;2022-11-25T07:48:55;6.80;;;4.33;;
15358;SDS011;7779;49.596;11.070;2022-11-25T07:51:27;6.93;;;4.40;;
15358;SDS011;7779;49.596;11.070;2022-11-25T07:53:59;6.47;;;4.23;;
15358;SDS011;7779;49.596;11.070;2022-11-25T07:56:27;7.60;;;4.37;;
15358;SDS011;7779;49.596;11.070;2022-11-25T07:58:54;7.13;;;4.47;;
15358;SDS011;7779;49.596;11.070;2022-11-25T08:01:21;7.73;;;4.83;;
15358;SDS011;7779;49.596;11.070;2022-11-25T08:03:48;6.97;;;4.80;;
15358;SDS011;7779;49.596;11.070;2022-11-25T08:06:19;6.07;;;3.93;;
15358;SDS011;7779;49.596;11.070;2022-11-25T08:08:51;6.67;;;4.27;;
15358;SDS011;7779;49.596;11.070;2022-11-25T08:11:20;5.80;;;4.17;;
15358;SDS011;7779;49.596;11.070;2022-11-25T08:13:51;6.13;;;4.37;;
15358;SDS011;7779;49.596;11.070;2022-11-25T08:16:18;5.40;;;3.83;;
15358;SDS011;7779;49.596;11.070;2022-11-25T08:18:48;5.10;;;3.90;;
15358;SDS011;7779;49.596;11.070;2022-11-25T08:21:14;5.83;;;4.30;;
15358;SDS011;7779;49.596;11.070;2022-11-25T08:23:42;5.43;;;4.23;;
15358;SDS011;7779;49.596;11.070;2022-11-25T08:26:19;5.50;;;4.63;;
15358;SDS011;7779;49.596;11.070;2022-11-25T08:28:56;5.20;;;3.73;;
15358;SDS011;7779;49.596;11.070;2022-11-25T08:31:24;4.97;;;3.73;;
15358;SDS011;7779;49.596;11.070;2022-11-25T08:33:56;3.90;;;3.33;;
15358;SDS011;7779;49.596;11.070;2022-11-25T08:36:23;5.63;;;3.50;;
15358;SDS011;7779;49.596;11.070;2022-11-25T08:38:52;5.13;;;3.73;;
15358;SDS011;7779;49.596;11.070;2022-11-25T08:41:32;4.13;;;3.70;;
15358;SDS011;7779;49.596;11.070;2022-11-25T08:44:01;5.73;;;3.90;;
15358;SDS011;7779;49.596;11.070;2022-11-25T08:46:30;7.10;;;3.90;;
15358;SDS011;7779;49.596;11.070;2022-11-25T08:49:01;4.10;;;3.63;;
15358;SDS011;7779;49.596;11.070;2022-11-25T08:51:29;4.67;;;3.63;;
15358;SDS011;7779;49.596;11.070;2022-11-25T08:53:57;5.50;;;3.67;;
15358;SDS011;7779;49.596;11.070;2022-11-25T08:56:24;4.33;;;3.37;;
15358;SDS011;7779;49.596;11.070;2022-11-25T08:58:51;3.93;;;3.30;;
15358;SDS011;7779;49.596;11.070;2022-11-25T09:01:19;4.83;;;3.23;;
15358;SDS011;7779;49.596;11.070;2022-11-25T09:33:40;6.60;;;5.20;;
15358;SDS011;7779;49.596;11.070;2022-11-25T09:36:06;6.87;;;4.37;;
15358;SDS011;7779;49.596;11.070;2022-11-25T09:38:33;6.07;;;4.00;;
15358;SDS011;7779;49.596;11.070;2022-11-25T09:49:53;4.00;;;2.30;;
15358;SDS011;7779;49.596;11.070;2022-11-25T09:52:39;4.50;;;3.00;;
15358;SDS011;7779;49.596;11.070;2022-11-25T09:55:41;5.83;;;2.90;;
15358;SDS011;7779;49.596;11.070;2022-11-25T09:58:24;4.10;;;2.47;;
15358;SDS011;7779;49.596;11.070;2022-11-25T10:00:58;4.60;;;2.40;;
15358;SDS011;7779;49.596;11.070;2022-11-25T10:03:45;3.50;;;2.27;;
15358;SDS011;7779;49.596;11.070;2022-11-25T10:06:40;3.33;;;2.40;;
15358;SDS011;7779;49.596;11.070;2022-11-25T10:09:25;3.27;;;2.40;;
15358;SDS011;7779;49.596;11.070;2022-11-25T10:11:55;2.67;;;2.30;;
15358;SDS011;7779;49.596;11.070;2022-11-25T10:17:12;3.03;;;2.13;;
15358;SDS011;7779;49.596;11.070;2022-11-25T10:20:12;2.17;;;1.63;;
15358;SDS011;7779;49.596;11.070;2022-11-25T10:22:46;1.90;;;1.67;;
15358;SDS011;7779;49.596;11.070;2022-11-25T10:25:23;3.17;;;1.83;;
15358;SDS011;7779;49.596;11.070;2022-11-25T10:27:57;3.50;;;1.80;;
15358;SDS011;7779;49.596;11.070;2022-11-25T10:33:40;2.90;;;1.70;;
15358;SDS011;7779;49.596;11.070;2022-11-25T10:38:56;1.60;;;1.50;;
15358;SDS011;7779;49.596;11.070;2022-11-25T10:41:43;2.43;;;1.70;;
15358;SDS011;7779;49.596;11.070;2022-11-25T10:44:33;1.83;;;1.37;;
15358;SDS011;7779;49.596;11.070;2022-11-25T10:52:28;2.77;;;1.80;;
15358;SDS011;7779;49.596;11.070;2022-11-25T10:57:37;2.03;;;1.80;;
15358;SDS011;7779;49.596;11.070;2022-11-25T11:00:03;2.00;;;1.77;;
15358;SDS011;7779;49.596;11.070;2022-11-25T11:02:39;1.97;;;1.63;;
15358;SDS011;7779;49.596;11.070;2022-11-25T11:07:44;2.67;;;1.73;;
15358;SDS011;7779;49.596;11.070;2022-11-25T11:12:36;3.20;;;2.23;;
15358;SDS011;7779;49.596;11.070;2022-11-25T11:15:17;2.80;;;1.87;;
15358;SDS011;7779;49.596;11.070;2022-11-25T11:17:47;3.10;;;2.23;;
15358;SDS011;7779;49.596;11.070;2022-11-25T11:20:15;3.13;;;2.10;;
15358;SDS011;7779;49.596;11.070;2022-11-25T11:22:57;2.37;;;1.97;;
15358;SDS011;7779;49.596;11.070;2022-11-25T11:25:33;3.90;;;1.97;;
15358;SDS011;7779;49.596;11.070;2022-11-25T11:28:02;2.57;;;1.83;;
15358;SDS011;7779;49.596;11.070;2022-11-25T11:30:54;1.90;;;1.70;;
15358;SDS011;7779;49.596;11.070;2022-11-25T11:36:19;2.53;;;1.60;;
15358;SDS011;7779;49.596;11.070;2022-11-25T11:38:56;2.90;;;1.90;;
15358;SDS011;7779;49.596;11.070;2022-11-25T11:42:06;2.10;;;1.90;;
15358;SDS011;7779;49.596;11.070;2022-11-25T11:47:54;1.73;;;1.43;;
15358;SDS011;7779;49.596;11.070;2022-11-25T11:50:46;2.77;;;1.60;;
15358;SDS011;7779;49.596;11.070;2022-11-25T11:56:05;1.60;;;1.50;;
15358;SDS011;7779;49.596;11.070;2022-11-25T12:07:38;2.57;;;1.97;;
15358;SDS011;7779;49.596;11.070;2022-11-25T12:12:44;2.70;;;1.70;;
15358;SDS011;7779;49.596;11.070;2022-11-25T12:15:27;3.07;;;1.90;;
15358;SDS011;7779;49.596;11.070;2022-11-25T12:18:20;2.97;;;1.83;;
15358;SDS011;7779;49.596;11.070;2022-11-25T12:21:11;2.57;;;2.37;;
15358;SDS011;7779;49.596;11.070;2022-11-25T12:26:58;1.83;;;1.63;;
15358;SDS011;7779;49.596;11.070;2022-11-25T12:29:52;2.50;;;1.80;;
15358;SDS011;7779;49.596;11.070;2022-11-25T12:32:40;2.33;;;1.73;;
15358;SDS011;7779;49.596;11.070;2022-11-25T12:38:04;3.03;;;2.27;;
15358;SDS011;7779;49.596;11.070;2022-11-25T12:41:08;2.27;;;1.73;;
15358;SDS011;7779;49.596;11.070;2022-11-25T12:43:59;2.60;;;2.07;;
15358;SDS011;7779;49.596;11.070;2022-11-25T12:46:41;2.00;;;1.80;;
15358;SDS011;7779;49.596;11.070;2022-11-25T12:49:22;4.63;;;2.00;;
15358;SDS011;7779;49.596;11.070;2022-11-25T13:00:23;3.73;;;1.93;;
15358;SDS011;7779;49.596;11.070;2022-11-25T13:06:02;2.80;;;1.60;;
15358;SDS011;7779;49.596;11.070;2022-11-25T13:12:08;1.67;;;1.40;;
15358;SDS011;7779;49.596;11.070;2022-11-25T13:17:55;2.80;;;2.07;;
15358;SDS011;7779;49.596;11.070;2022-11-25T13:25:32;3.77;;;2.33;;
15358;SDS011;7779;49.596;11.070;2022-11-25T13:28:00;2.73;;;1.87;;
15358;SDS011;7779;49.596;11.070;2022-11-25T13:38:33;3.43;;;2.50;;
15358;SDS011;7779;49.596;11.070;2022-11-25T13:41:31;3.03;;;2.13;;
15358;SDS011;7779;49.596;11.070;2022-11-25T13:46:55;3.10;;;2.00;;
15358;SDS011;7779;49.596;11.070;2022-11-25T13:54:43;2.60;;;2.30;;
15358;SDS011;7779;49.596;11.070;2022-11-25T14:10:48;2.70;;;2.03;;
15358;SDS011;7779;49.596;11.070;2022-11-25T14:16:50;3.37;;;2.53;;
15358;SDS011;7779;49.596;11.070;2022-11-25T14:26:10;3.83;;;3.40;;
15358;SDS011;7779;49.596;11.070;2022-11-25T14:28:46;5.10;;;3.13;;
15358;SDS011;7779;49.596;11.070;2022-11-25T14:31:23;4.37;;;3.13;;
15358;SDS011;7779;49.596;11.070;2022-11-25T14:34:02;4.37;;;3.60;;
15358;SDS011;7779;49.596;11.070;2022-11-25T14:36:52;3.97;;;3.03;;
15358;SDS011;7779;49.596;11.070;2022-11-25T14:39:27;5.50;;;3.27;;
15358;SDS011;7779;49.596;11.070;2022-11-25T14:42:05;3.60;;;3.17;;
15358;SDS011;7779;49.596;11.070;2022-11-25T14:44:54;3.77;;;3.07;;
15358;SDS011;7779;49.596;11.070;2022-11-25T14:47:23;3.90;;;2.43;;
15358;SDS011;7779;49.596;11.070;2022-11-25T14:49:56;3.53;;;2.20;;
15358;SDS011;7779;49.596;11.070;2022-11-25T14:52:26;3.13;;;2.37;;
15358;SDS011;7779;49.596;11.070;2022-11-25T14:54:57;3.90;;;2.30;;
15358;SDS011;7779;49.596;11.070;2022-11-25T14:57:26;3.50;;;2.43;;
15358;SDS011;7779;49.596;11.070;2022-11-25T14:59:58;4.73;;;2.40;;
15358;SDS011;7779;49.596;11.070;2022-11-25T15:02:33;4.30;;;2.90;;
15358;SDS011;7779;49.596;11.070;2022-11-25T15:07:32;3.93;;;3.53;;
15358;SDS011;7779;49.596;11.070;2022-11-25T15:09:58;4.60;;;3.47;;
15358;SDS011;7779;49.596;11.070;2022-11-25T15:12:26;4.50;;;3.70;;
15358;SDS011;7779;49.596;11.070;2022-11-25T15:14:57;6.30;;;4.37;;
15358;SDS011;7779;49.596;11.070;2022-11-25T15:17:27;4.63;;;3.73;;
15358;SDS011;7779;49.596;11.070;2022-11-25T15:19:57;4.20;;;3.60;;
15358;SDS011;7779;49.596;11.070;2022-11-25T15:22:28;4.53;;;3.40;;
15358;SDS011;7779;49.596;11.070;2022-11-25T15:24:54;4.27;;;3.33;;
15358;SDS011;7779;49.596;11.070;2022-11-25T15:27:33;4.77;;;3.60;;
15358;SDS011;7779;49.596;11.070;2022-11-25T15:29:59;4.87;;;3.13;;
15358;SDS011;7779;49.596;11.070;2022-11-25T15:32:25;5.00;;;3.90;;
15358;SDS011;7779;49.596;11.070;2022-11-25T15:35:00;8.17;;;5.10;;
15358;SDS011;7779;49.596;11.070;2022-11-25T15:37:26;7.80;;;5.60;;
15358;SDS011;7779;49.596;11.070;2022-11-25T15:43:04;13.20;;;8.80;;
15358;SDS011;7779;49.596;11.070;2022-11-25T15:45:45;11.10;;;7.20;;
15358;SDS011;7779;49.596;11.070;2022-11-25T15:50:58;8.27;;;5.53;;
15358;SDS011;7779;49.596;11.070;2022-11-25T15:53:40;12.53;;;8.60;;
15358;SDS011;7779;49.596;11.070;2022-11-25T15:56:11;7.63;;;6.23;;
15358;SDS011;7779;49.596;11.070;2022-11-25T15:58:47;6.40;;;5.07;;
15358;SDS011;7779;49.596;11.070;2022-11-25T16:03:46;12.43;;;8.93;;
15358;SDS011;7779;49.596;11.070;2022-11-25T16:06:22;14.17;;;11.33;;
15358;SDS011;7779;49.596;11.070;2022-11-25T16:11:24;14.73;;;12.80;;
15358;SDS011;7779;49.596;11.070;2022-11-25T16:13:54;15.33;;;13.37;;
15358;SDS011;7779;49.596;11.070;2022-11-25T16:16:42;14.50;;;12.00;;
15358;SDS011;7779;49.596;11.070;2022-11-25T16:21:39;15.10;;;13.30;;
15358;SDS011;7779;49.596;11.070;2022-11-25T16:24:28;15.70;;;11.43;;
15358;SDS011;7779;49.596;11.070;2022-11-25T16:27:14;13.17;;;9.83;;
15358;SDS011;7779;49.596;11.070;2022-11-25T16:32:30;10.07;;;8.40;;
15358;SDS011;7779;49.596;11.070;2022-11-25T16:35:16;11.73;;;8.50;;
15358;SDS011;7779;49.596;11.070;2022-11-25T16:37:45;9.33;;;7.97;;
15358;SDS011;7779;49.596;11.070;2022-11-25T16:40:12;9.73;;;7.57;;
15358;SDS011;7779;49.596;11.070;2022-11-25T16:42:40;9.73;;;7.93;;
15358;SDS011;7779;49.596;11.070;2022-11-25T16:45:41;14.23;;;8.80;;
15358;SDS011;7779;49.596;11.070;2022-11-25T16:48:00;9.17;;;7.83;;
15358;SDS011;7779;49.596;11.070;2022-11-25T16:50:26;9.13;;;6.97;;
15358;SDS011;7779;49.596;11.070;2022-11-25T16:52:52;13.93;;;8.67;;
15358;SDS011;7779;49.596;11.070;2022-11-25T16:55:17;12.83;;;8.43;;
15358;SDS011;7779;49.596;11.070;2022-11-25T16:57:43;16.93;;;11.37;;
15358;SDS011;7779;49.596;11.070;2022-11-25T17:00:11;16.80;;;11.60;;
15358;SDS011;7779;49.596;11.070;2022-11-25T17:02:40;17.97;;;11.60;;
15358;SDS011;7779;49.596;11.070;2022-11-25T17:05:25;16.20;;;11.23;;
15358;SDS011;7779;49.596;11.070;2022-11-25T17:07:51;14.47;;;10.03;;
15358;SDS011;7779;49.596;11.070;2022-11-25T17:10:17;13.60;;;9.23;;
15358;SDS011;7779;49.596;11.070;2022-11-25T17:12:44;13.37;;;9.77;;
15358;SDS011;7779;49.596;11.070;2022-11-25T17:15:12;15.40;;;11.10;;
15358;SDS011;7779;49.596;11.070;2022-11-25T17:17:45;14.63;;;9.50;;
15358;SDS011;7779;49.596;11.070;2022-11-25T17:20:13;14.80;;;9.50;;
15358;SDS011;7779;49.596;11.070;2022-11-25T17:22:41;14.93;;;10.10;;
15358;SDS011;7779;49.596;11.070;2022-11-25T17:25:07;17.27;;;10.40;;
15358;SDS011;7779;49.596;11.070;2022-11-25T17:27:36;16.13;;;10.30;;
15358;SDS011;7779;49.596;11.070;2022-11-25T17:30:03;14.97;;;9.57;;
15358;SDS011;7779;49.596;11.070;2022-11-25T17:32:31;14.97;;;10.23;;
15358;SDS011;7779;49.596;11.070;2022-11-25T17:34:57;13.17;;;9.37;;
15358;SDS011;7779;49.596;11.070;2022-11-25T17:37:23;12.43;;;8.60;;
15358;SDS011;7779;49.596;11.070;2022-11-25T17:39:53;11.40;;;7.80;;
15358;SDS011;7779;49.596;11.070;2022-11-25T17:42:29;11.57;;;8.33;;
15358;SDS011;7779;49.596;11.070;2022-11-25T17:44:56;10.50;;;7.50;;
15358;SDS011;7779;49.596;11.070;2022-11-25T17:47:22;10.33;;;8.13;;
15358;SDS011;7779;49.596;11.070;2022-11-25T17:49:48;9.77;;;7.80;;
15358;SDS011;7779;49.596;11.070;2022-11-25T17:52:14;9.53;;;7.70;;
15358;SDS011;7779;49.596;11.070;2022-11-25T17:54:40;10.33;;;7.60;;
15358;SDS011;7779;49.596;11.070;2022-11-25T17:57:06;11.10;;;8.17;;
15358;SDS011;7779;49.596;11.070;2022-11-25T17:59:38;9.93;;;8.43;;
15358;SDS011;7779;49.596;11.070;2022-11-25T18:02:17;9.70;;;7.50;;
15358;SDS011;7779;49.596;11.070;2022-11-25T18:04:46;11.00;;;7.73;;
15358;SDS011;7779;49.596;11.070;2022-11-25T18:07:12;10.77;;;7.87;;
15358;SDS011;7779;49.596;11.070;2022-11-25T18:09:38;12.60;;;7.80;;
15358;SDS011;7779;49.596;11.070;2022-11-25T18:12:07;11.00;;;8.03;;
15358;SDS011;7779;49.596;11.070;2022-11-25T18:14:40;10.30;;;7.20;;